createdAt,value
2019-05-20T00:02:23.197Z,69
2019-05-20T00:07:10.149Z,70
2019-05-20T00:12:09.518Z,70
2019-05-20T00:17:10.497Z,70
2019-05-20T00:22:11.084Z,70
2019-05-20T00:27:09.971Z,71
2019-05-20T00:32:10.106Z,71
2019-05-20T00:37:10.252Z,71
2019-05-20T00:42:10.449Z,71
2019-05-20T00:47:10.186Z,71
2019-05-20T00:52:09.927Z,71
2019-05-20T00:57:08.868Z,72
2019-05-20T01:02:09.442Z,72
2019-05-20T01:07:09.970Z,72
2019-05-20T01:12:07.925Z,72
2019-05-20T01:17:10.857Z,72
2019-05-20T01:22:10.303Z,72
2019-05-20T01:27:10.536Z,72
2019-05-20T01:32:09.055Z,73
2019-05-20T01:37:10.694Z,73
2019-05-20T01:42:11.266Z,73
2019-05-20T01:47:11.294Z,73
2019-05-20T01:52:10.859Z,73
2019-05-20T01:57:09.922Z,74
2019-05-20T02:02:10.334Z,74
2019-05-20T02:07:11.055Z,74
2019-05-20T02:12:10.467Z,74
2019-05-20T02:17:09.883Z,74
2019-05-20T02:22:10.106Z,74
2019-05-20T02:27:10.055Z,74
2019-05-20T02:32:10.644Z,75
2019-05-20T02:37:09.767Z,75
2019-05-20T02:42:10.543Z,75
2019-05-20T02:47:08.541Z,75
2019-05-20T02:52:09.834Z,75
2019-05-20T02:57:09.595Z,75
2019-05-20T03:02:09.759Z,75
2019-05-20T03:07:08.537Z,75
2019-05-20T03:12:09.917Z,76
2019-05-20T03:17:09.831Z,76
2019-05-20T03:22:09.857Z,76
2019-05-20T03:27:09.625Z,76
2019-05-20T03:32:09.949Z,76
2019-05-20T03:37:10.060Z,77
2019-05-20T03:42:09.556Z,77
2019-05-20T03:47:10.117Z,77
2019-05-20T03:52:10.196Z,78
2019-05-20T03:57:10.014Z,78
2019-05-20T04:02:10.307Z,78
2019-05-20T04:07:10.120Z,78
2019-05-20T04:12:10.334Z,78
2019-05-20T04:17:11.057Z,78
2019-05-20T04:22:08.559Z,78
2019-05-20T04:27:09.458Z,78
2019-05-20T04:32:10.549Z,78
2019-05-20T04:37:10.312Z,79
2019-05-20T04:42:08.678Z,79
2019-05-20T04:47:09.104Z,79
2019-05-20T04:52:09.964Z,79
2019-05-20T04:57:10.979Z,79
2019-05-20T05:02:11.571Z,79
2019-05-20T05:07:10.514Z,79
2019-05-20T05:17:10.803Z,79
2019-05-20T05:22:09.741Z,79
2019-05-20T05:27:10.683Z,79
2019-05-20T05:37:09.508Z,79
2019-05-20T05:42:09.892Z,79
2019-05-20T05:47:10.365Z,79
2019-05-20T05:57:08.732Z,78
2019-05-20T06:02:09.509Z,78
2019-05-20T06:07:09.059Z,78
2019-05-20T06:12:08.513Z,77
2019-05-20T06:22:10.508Z,77
2019-05-20T06:37:09.900Z,76
2019-05-20T06:42:10.022Z,76
2019-05-20T06:47:10.353Z,75
2019-05-20T06:52:10.378Z,74
2019-05-20T07:02:10.074Z,74
2019-05-20T07:07:20.392Z,73
2019-05-20T07:12:10.177Z,73
2019-05-20T07:22:10.097Z,72
2019-05-20T07:27:10.201Z,72
2019-05-20T07:47:11.258Z,71
2019-05-20T07:52:09.186Z,70
2019-05-20T08:07:26.911Z,68
2019-05-20T08:12:09.241Z,67
2019-05-20T08:17:10.669Z,67
2019-05-20T08:22:09.717Z,67
2019-05-20T08:27:09.372Z,66
2019-05-20T08:32:10.857Z,66
2019-05-20T08:37:08.381Z,65
2019-05-20T08:47:09.996Z,65
2019-05-20T08:57:10.495Z,64
2019-05-20T09:17:10.398Z,63
2019-05-20T09:27:07.994Z,62
2019-05-20T09:32:09.835Z,62
2019-05-20T09:42:08.636Z,62
2019-05-20T09:47:09.607Z,61
2019-05-20T10:12:10.348Z,60
2019-05-20T10:17:10.347Z,60
2019-05-20T10:22:10.206Z,59
2019-05-20T10:27:10.107Z,59
2019-05-20T10:32:08.405Z,59
2019-05-20T10:37:11.155Z,59
2019-05-20T10:47:07.748Z,58
2019-05-20T10:52:10.071Z,58
2019-05-20T10:57:10.527Z,57
2019-05-20T11:02:07.876Z,57
2019-05-20T11:07:10.053Z,57
2019-05-20T11:12:10.055Z,57
2019-05-20T11:17:10.485Z,57
2019-05-20T11:27:10.442Z,56
2019-05-20T11:32:10.030Z,55
2019-05-20T11:42:10.447Z,55
2019-05-20T11:47:10.614Z,55
2019-05-20T11:52:07.677Z,55
2019-05-20T11:57:09.486Z,55
2019-05-20T12:02:10.679Z,55
2019-05-20T12:07:09.525Z,55
2019-05-20T12:12:10.519Z,54
2019-05-20T12:27:08.499Z,54
2019-05-20T12:32:10.777Z,54
2019-05-20T12:52:10.284Z,53
2019-05-20T13:02:10.557Z,52
2019-05-20T13:12:10.899Z,52
2019-05-20T13:27:10.829Z,52
2019-05-20T13:32:08.704Z,51
2019-05-20T13:42:11.387Z,51
2019-05-20T13:47:10.601Z,51
2019-05-20T13:52:08.982Z,51
2019-05-20T13:57:13.286Z,51
2019-05-20T14:02:10.349Z,51
2019-05-20T14:07:10.418Z,51
2019-05-20T14:17:10.723Z,52
2019-05-20T14:22:08.488Z,52
2019-05-20T14:27:09.467Z,52
2019-05-20T14:32:11.150Z,53
2019-05-20T14:37:08.657Z,53
2019-05-20T14:42:10.383Z,54
2019-05-20T14:47:10.521Z,56
2019-05-20T14:57:09.383Z,60
2019-05-20T15:07:09.845Z,63
2019-05-20T15:12:09.166Z,65
2019-05-20T15:22:11.081Z,68
2019-05-20T15:27:07.842Z,69
2019-05-20T15:32:09.335Z,70
2019-05-20T15:37:10.892Z,71
2019-05-20T15:42:08.485Z,72
2019-05-20T15:47:08.457Z,73
2019-05-20T16:02:10.318Z,74
2019-05-20T16:12:10.183Z,75
2019-05-20T16:17:09.540Z,76
2019-05-20T16:27:10.134Z,77
2019-05-20T16:32:09.448Z,77
2019-05-20T16:37:10.702Z,78
2019-05-20T16:47:09.378Z,78
2019-05-20T16:52:10.811Z,78
2019-05-20T17:02:09.665Z,78
2019-05-20T17:07:09.840Z,79
2019-05-20T17:22:07.941Z,79
2019-05-20T17:27:10.191Z,79
2019-05-20T17:32:09.948Z,79
2019-05-20T17:37:09.802Z,79
2019-05-20T17:42:09.613Z,80
2019-05-20T17:47:10.348Z,80
2019-05-20T17:52:10.668Z,80
2019-05-20T17:57:09.823Z,80
2019-05-20T18:02:08.969Z,81
2019-05-20T18:07:10.283Z,81
2019-05-20T18:12:08.870Z,81
2019-05-20T18:17:09.494Z,81
2019-05-20T18:22:10.361Z,81
2019-05-20T18:32:09.286Z,81
2019-05-20T18:37:09.464Z,81
2019-05-20T18:42:09.740Z,81
2019-05-20T18:47:09.766Z,81
2019-05-20T18:57:08.761Z,81
2019-05-20T19:02:09.122Z,81
2019-05-20T19:07:09.698Z,81
2019-05-20T19:12:10.956Z,81
2019-05-20T19:27:09.883Z,81
2019-05-20T19:32:10.187Z,81
2019-05-20T19:37:10.075Z,81
2019-05-20T19:47:10.506Z,82
2019-05-20T19:52:09.725Z,82
2019-05-20T19:57:09.805Z,82
2019-05-20T20:02:17.389Z,82
2019-05-20T20:07:08.685Z,82
2019-05-20T20:17:09.587Z,82
2019-05-20T20:22:08.077Z,82
2019-05-20T20:27:10.643Z,82
2019-05-20T20:32:08.494Z,82
2019-05-20T20:37:09.429Z,82
2019-05-20T20:42:10.334Z,82
2019-05-20T20:57:09.101Z,81
2019-05-20T21:02:09.995Z,81
2019-05-20T21:07:09.981Z,81
2019-05-20T21:12:08.567Z,81
2019-05-20T21:17:09.912Z,81
2019-05-20T21:22:09.849Z,81
2019-05-20T21:27:09.260Z,81
2019-05-20T21:32:11.086Z,81
2019-05-20T21:37:11.254Z,81
2019-05-20T21:42:10.632Z,81
2019-05-20T21:47:08.472Z,81
2019-05-20T21:52:10.282Z,81
2019-05-20T22:02:09.147Z,81
2019-05-20T22:07:09.016Z,81
2019-05-20T22:12:10.928Z,81
2019-05-20T22:17:08.629Z,81
2019-05-20T22:22:10.500Z,81
2019-05-20T22:27:09.108Z,81
2019-05-20T22:32:10.299Z,81
2019-05-20T22:37:10.717Z,81
2019-05-20T22:42:10.490Z,81
2019-05-20T22:47:11.892Z,81
2019-05-20T22:52:09.274Z,81
2019-05-20T22:57:10.242Z,81
2019-05-20T23:02:10.556Z,82
2019-05-20T23:07:09.077Z,81
2019-05-20T23:12:09.809Z,81
2019-05-20T23:17:10.831Z,81
2019-05-20T23:22:08.506Z,81
2019-05-20T23:27:10.067Z,81
2019-05-20T23:32:10.682Z,81
2019-05-20T23:37:09.741Z,81
2019-05-20T23:42:09.522Z,81
2019-05-20T23:47:11.054Z,81
2019-05-20T23:52:10.222Z,81
2019-05-20T23:57:09.772Z,82
